createdAt,value
2023-08-08T00:02:36.907Z,34.04
2023-08-08T00:07:39.200Z,34.43
2023-08-08T00:12:41.644Z,34.76
2023-08-08T00:17:44.046Z,34.85
2023-08-08T00:22:46.439Z,34.95
2023-08-08T00:27:48.851Z,35.15
2023-08-08T00:32:51.180Z,35.06
2023-08-08T00:37:53.380Z,35.17
2023-08-08T00:42:55.709Z,35.19
2023-08-08T00:47:58.054Z,35.27
2023-08-08T00:53:00.575Z,35.36
2023-08-08T00:58:02.866Z,35.15
2023-08-08T01:03:05.484Z,34.99
2023-08-08T01:08:09.330Z,34.95
2023-08-08T01:13:19.601Z,35.29
2023-08-08T01:18:22.132Z,35.88
2023-08-08T01:23:33.368Z,36.14
2023-08-08T01:28:36.235Z,36.19
2023-08-08T01:33:38.949Z,35.63
2023-08-08T01:38:48.332Z,35.57
2023-08-08T01:43:51.230Z,36.44
2023-08-08T01:48:53.630Z,36.46
2023-08-08T01:53:55.988Z,36.20
2023-08-08T01:58:58.340Z,36.24
2023-08-08T02:04:00.568Z,36.27
2023-08-08T02:09:02.903Z,36.65
2023-08-08T02:14:05.332Z,37.14
2023-08-08T02:19:07.762Z,36.97
2023-08-08T02:24:10.169Z,36.65
2023-08-08T02:29:12.480Z,36.64
2023-08-08T02:34:14.685Z,37.27
2023-08-08T02:39:17.108Z,37.09
2023-08-08T02:44:21.173Z,37.71
2023-08-08T02:49:23.594Z,37.86
2023-08-08T02:54:25.866Z,37.94
2023-08-08T02:59:28.940Z,38.16
2023-08-08T03:04:31.555Z,38.33
2023-08-08T03:09:33.863Z,38.35
2023-08-08T03:14:36.260Z,38.18
2023-08-08T03:19:38.625Z,38.20
2023-08-08T03:24:40.908Z,38.65
2023-08-08T03:29:43.331Z,38.83
2023-08-08T03:34:45.626Z,38.64
2023-08-08T03:39:48.382Z,37.54
2023-08-08T03:44:51.008Z,37.07
2023-08-08T03:49:56.869Z,37.15
2023-08-08T03:54:59.179Z,37.44
2023-08-08T04:00:01.887Z,37.69
2023-08-08T04:05:04.458Z,37.52
2023-08-08T04:10:07.460Z,37.28
2023-08-08T04:15:10.908Z,37.44
2023-08-08T04:20:14.087Z,38.33
2023-08-08T04:25:17.045Z,38.36
2023-08-08T04:30:19.858Z,37.86
2023-08-08T04:35:22.403Z,37.81
2023-08-08T04:40:28.960Z,38.18
2023-08-08T04:45:31.463Z,38.66
2023-08-08T04:50:33.921Z,38.68
2023-08-08T04:55:36.813Z,37.80
2023-08-08T05:00:39.385Z,37.54
2023-08-08T05:05:41.748Z,38.26
2023-08-08T05:10:44.111Z,38.57
2023-08-08T05:15:46.681Z,38.46
2023-08-08T05:20:48.910Z,38.01
2023-08-08T05:25:51.227Z,38.02
2023-08-08T05:30:53.553Z,37.75
2023-08-08T05:35:55.892Z,37.29
2023-08-08T05:40:58.150Z,36.54
2023-08-08T05:46:00.745Z,36.21
2023-08-08T05:51:06.343Z,35.43
2023-08-08T05:56:10.261Z,35.06
2023-08-08T06:01:13.304Z,34.68
2023-08-08T06:06:16.209Z,34.31
2023-08-08T06:11:18.466Z,34.20
2023-08-08T06:16:21.748Z,33.87
2023-08-08T06:21:24.046Z,34.54
2023-08-08T06:26:26.677Z,33.96
2023-08-08T06:31:29.296Z,33.61
2023-08-08T06:36:31.464Z,33.46
2023-08-08T06:41:34.148Z,33.07
2023-08-08T06:46:36.514Z,33.43
2023-08-08T06:51:39.423Z,32.91
2023-08-08T06:56:41.815Z,33.30
2023-08-08T07:01:44.398Z,32.69
2023-08-08T07:06:46.972Z,32.57
2023-08-08T07:11:49.446Z,32.67
2023-08-08T07:16:51.776Z,32.02
2023-08-08T07:21:53.959Z,32.44
2023-08-08T07:26:58.012Z,31.51
2023-08-08T07:32:04.524Z,30.34
2023-08-08T07:37:06.989Z,30.14
2023-08-08T07:42:09.239Z,29.03
2023-08-08T07:47:13.508Z,29.00
2023-08-08T07:52:16.028Z,28.83
2023-08-08T07:57:18.353Z,28.28
2023-08-08T08:02:20.757Z,28.54
2023-08-08T08:07:23.499Z,29.39
2023-08-08T08:12:25.789Z,28.95
2023-08-08T08:17:29.503Z,28.20
2023-08-08T08:22:31.745Z,27.85
2023-08-08T08:27:33.898Z,27.49
2023-08-08T08:32:36.533Z,27.50
2023-08-08T08:37:38.684Z,27.39
2023-08-08T08:42:45.125Z,27.07
2023-08-08T08:47:49.811Z,27.02
2023-08-08T08:52:52.363Z,27.43
2023-08-08T08:57:56.019Z,27.06
2023-08-08T09:02:58.454Z,26.99
2023-08-08T09:08:01.741Z,26.83
2023-08-08T09:13:06.799Z,26.50
2023-08-08T09:18:09.331Z,25.79
2023-08-08T09:23:11.556Z,26.00
2023-08-08T09:28:14.216Z,25.51
2023-08-08T09:33:16.448Z,25.44
2023-08-08T09:38:19.061Z,25.18
2023-08-08T09:43:22.007Z,25.90
2023-08-08T09:48:25.077Z,25.41
2023-08-08T09:53:31.973Z,25.38
2023-08-08T09:58:34.767Z,25.70
2023-08-08T10:03:39.385Z,25.81
2023-08-08T10:08:42.297Z,25.70
2023-08-08T10:13:51.980Z,25.72
2023-08-08T10:19:00.099Z,25.10
2023-08-08T10:24:12.326Z,25.03
2023-08-08T10:29:20.412Z,24.65
2023-08-08T10:34:25.541Z,24.48
2023-08-08T10:39:27.827Z,23.94
2023-08-08T10:44:30.146Z,23.70
2023-08-08T10:49:32.830Z,23.30
2023-08-08T10:54:35.519Z,23.31
2023-08-08T10:59:39.255Z,23.63
2023-08-08T11:04:42.832Z,23.38
2023-08-08T11:09:45.447Z,23.30
2023-08-08T11:14:47.619Z,22.79
2023-08-08T11:19:50.074Z,23.01
2023-08-08T11:24:53.352Z,23.13
2023-08-08T11:29:59.474Z,22.74
2023-08-08T11:35:02.394Z,22.83
2023-08-08T11:40:06.634Z,22.78
2023-08-08T11:45:11.114Z,22.61
2023-08-08T11:50:14.022Z,22.69
2023-08-08T11:55:17.079Z,23.26
2023-08-08T12:00:19.539Z,22.95
2023-08-08T12:05:23.846Z,22.69
2023-08-08T12:10:26.788Z,22.17
2023-08-08T12:15:33.936Z,21.99
2023-08-08T12:20:36.141Z,22.20
2023-08-08T12:25:38.960Z,21.79
2023-08-08T12:30:41.188Z,21.36
2023-08-08T12:35:43.384Z,21.48
2023-08-08T12:40:46.076Z,21.35
2023-08-08T12:45:49.260Z,21.51
2023-08-08T12:50:51.485Z,21.32
2023-08-08T12:55:53.751Z,21.11
2023-08-08T13:00:56.038Z,21.07
2023-08-08T13:05:58.209Z,20.90
2023-08-08T13:11:00.399Z,20.66
2023-08-08T13:16:02.761Z,20.54
2023-08-08T13:21:06.766Z,20.71
2023-08-08T13:26:09.107Z,20.45
2023-08-08T13:31:11.627Z,20.02
2023-08-08T13:36:13.953Z,20.27
2023-08-08T13:41:16.109Z,19.73
2023-08-08T13:46:18.412Z,19.85
2023-08-08T13:51:20.698Z,19.47
2023-08-08T13:56:23.557Z,19.48
2023-08-08T14:01:25.867Z,19.25
2023-08-08T14:06:28.661Z,19.55
2023-08-08T14:11:30.847Z,19.42
2023-08-08T14:16:34.004Z,19.65
2023-08-08T14:21:36.344Z,20.02
2023-08-08T14:26:38.658Z,20.08
2023-08-08T14:32:01.433Z,20.44
2023-08-08T14:37:03.351Z,20.27
2023-08-08T14:42:05.730Z,19.86
2023-08-08T14:47:08.131Z,20.40
2023-08-08T14:52:10.772Z,20.16
2023-08-08T14:57:13.009Z,20.17
2023-08-08T15:02:15.546Z,20.09
2023-08-08T15:07:18.018Z,20.35
2023-08-08T15:12:20.350Z,20.24
2023-08-08T15:17:22.605Z,20.43
2023-08-08T15:22:24.957Z,20.72
2023-08-08T15:27:27.168Z,20.87
2023-08-08T15:32:29.463Z,21.05
2023-08-08T15:37:31.729Z,20.94
2023-08-08T15:42:34.237Z,20.92
2023-08-08T15:47:36.602Z,20.80
2023-08-08T15:52:38.984Z,20.82
2023-08-08T15:57:41.276Z,20.19
2023-08-08T16:02:43.922Z,20.35
2023-08-08T16:07:46.383Z,20.16
2023-08-08T16:12:48.648Z,20.59
2023-08-08T16:17:50.909Z,20.54
2023-08-08T16:22:55.237Z,20.60
2023-08-08T16:27:57.624Z,20.67
2023-08-08T16:33:00.016Z,21.03
2023-08-08T16:38:02.249Z,21.16
2023-08-08T16:43:05.101Z,21.09
2023-08-08T16:48:07.671Z,20.88
2023-08-08T16:53:11.277Z,21.07
2023-08-08T16:58:13.456Z,21.09
2023-08-08T17:03:15.791Z,20.89
2023-08-08T17:08:18.106Z,21.33
2023-08-08T17:13:20.232Z,20.93
2023-08-08T17:18:22.461Z,21.25
2023-08-08T17:23:25.175Z,21.36
2023-08-08T17:28:27.300Z,21.21
2023-08-08T17:33:29.696Z,21.66
2023-08-08T17:38:31.806Z,21.93
2023-08-08T17:43:34.097Z,22.05
2023-08-08T17:48:36.294Z,21.86
2023-08-08T17:53:38.514Z,21.81
2023-08-08T17:58:45.830Z,21.75
2023-08-08T18:03:48.152Z,22.30
2023-08-08T18:08:50.567Z,22.39
2023-08-08T18:13:52.793Z,22.13
2023-08-08T18:18:54.893Z,22.71
2023-08-08T18:23:57.578Z,22.33
2023-08-08T18:28:59.754Z,22.78
2023-08-08T18:34:03.472Z,22.69
2023-08-08T18:39:07.500Z,22.86
2023-08-08T18:44:09.639Z,23.47
2023-08-08T18:49:13.367Z,23.53
2023-08-08T18:54:15.820Z,23.63
2023-08-08T18:59:17.960Z,23.89
2023-08-08T19:04:20.088Z,23.82
2023-08-08T19:09:22.333Z,24.06
2023-08-08T19:14:24.591Z,24.23
2023-08-08T19:19:26.923Z,25.25
2023-08-08T19:24:29.039Z,25.60
2023-08-08T19:29:31.179Z,26.00
2023-08-08T19:34:33.345Z,26.35
2023-08-08T19:39:36.212Z,26.81
2023-08-08T19:44:39.187Z,27.02
2023-08-08T19:49:41.415Z,26.71
2023-08-08T19:54:43.576Z,27.01
2023-08-08T19:59:45.823Z,27.21
2023-08-08T20:04:48.061Z,27.07
2023-08-08T20:09:50.274Z,27.04
2023-08-08T20:14:52.408Z,26.82
2023-08-08T20:19:55.472Z,27.12
2023-08-08T20:24:57.631Z,26.94
2023-08-08T20:29:59.851Z,27.21
2023-08-08T20:35:02.822Z,26.84
2023-08-08T20:40:05.341Z,26.91
2023-08-08T20:45:08.251Z,26.67
2023-08-08T20:50:10.945Z,26.87
2023-08-08T20:55:13.362Z,26.48
2023-08-08T21:00:15.657Z,26.50
2023-08-08T21:10:44.284Z,26.70
2023-08-08T21:15:46.636Z,25.89
2023-08-08T21:20:55.872Z,25.96
2023-08-08T21:25:58.066Z,25.91
2023-08-08T21:31:00.333Z,25.72
2023-08-08T21:36:02.785Z,25.44
2023-08-08T21:41:04.974Z,25.54
2023-08-08T21:46:07.208Z,25.67
2023-08-08T21:51:09.487Z,25.24
2023-08-08T21:56:11.703Z,25.46
2023-08-08T22:01:13.914Z,25.11
2023-08-08T22:06:16.462Z,25.00
2023-08-08T22:11:18.762Z,25.00
2023-08-08T22:16:21.295Z,24.93
2023-08-08T22:21:23.556Z,24.81
2023-08-08T22:26:25.810Z,24.73
2023-08-08T22:31:27.986Z,24.37
2023-08-08T22:36:31.234Z,24.60
2023-08-08T22:41:33.503Z,24.45
2023-08-08T22:46:35.745Z,24.53
2023-08-08T22:51:38.773Z,24.71
2023-08-08T22:56:42.410Z,24.76
2023-08-08T23:01:44.600Z,24.86
2023-08-08T23:06:46.768Z,24.72
2023-08-08T23:11:48.910Z,25.07
2023-08-08T23:16:53.735Z,25.12
2023-08-08T23:21:56.675Z,25.02
2023-08-08T23:26:58.977Z,25.30
2023-08-08T23:32:01.403Z,25.48
2023-08-08T23:37:03.955Z,25.60
2023-08-08T23:42:06.412Z,25.78
2023-08-08T23:47:10.283Z,25.81
2023-08-08T23:52:12.375Z,26.07
2023-08-08T23:57:14.597Z,25.70
